Time;durP1;ratioP1;P1;durP2;ratioP2;P2;SDS_P1;SDS_P2;PMS_P1;PMS_P2;Temp;Humidity;BMP_temperature;BMP_pressure;BME280_temperature;BME280_humidity;BME280_pressure;Samples;Min_cycle;Max_cycle;Signal;HPM_P1;HPM_P2
2023/08/17 00:00:18;;;;;;;13.00;8.30;;;;;;;;;;107009;1253;61196;-80
2023/08/17 00:03:05;;;;;;;14.90;10.90;;;;;;;;;;107085;1255;62226;-81
2023/08/17 00:05:32;;;;;;;13.70;7.90;;;;;;;;;;107031;1251;61170;-81
2023/08/17 00:08:00;;;;;;;10.30;8.60;;;;;;;;;;106938;1253;61139;-80
2023/08/17 00:10:27;;;;;;;15.20;9.30;;;;;;;;;;107349;1251;63177;-80
2023/08/17 00:12:53;;;;;;;12.50;8.70;;;;;;;;;;107129;1252;61238;-80
2023/08/17 00:15:20;;;;;;;11.10;8.70;;;;;;;;;;107108;1253;61250;-80
2023/08/17 00:17:46;;;;;;;14.10;9.40;;;;;;;;;;107062;1253;61324;-80
2023/08/17 00:20:13;;;;;;;12.50;10.20;;;;;;;;;;107147;1253;61214;-80
2023/08/17 00:22:39;;;;;;;13.60;9.70;;;;;;;;;;107150;1253;60825;-80
2023/08/17 00:25:05;;;;;;;14.30;10.50;;;;;;;;;;107191;1253;61971;-80
2023/08/17 00:27:32;;;;;;;12.40;9.70;;;;;;;;;;107032;1253;61349;-81
2023/08/17 00:29:59;;;;;;;10.30;9.00;;;;;;;;;;107083;1256;61227;-81
2023/08/17 00:32:25;;;;;;;11.30;9.80;;;;;;;;;;107176;1251;61171;-81
2023/08/17 00:34:52;;;;;;;16.50;9.70;;;;;;;;;;107098;1251;59511;-80
2023/08/17 00:37:19;;;;;;;11.50;10.30;;;;;;;;;;107011;1254;61219;-80
2023/08/17 00:39:45;;;;;;;12.90;10.60;;;;;;;;;;106941;1252;61237;-80
2023/08/17 00:42:11;;;;;;;11.90;10.40;;;;;;;;;;107082;1250;61247;-80
2023/08/17 00:44:38;;;;;;;14.40;10.00;;;;;;;;;;107087;1250;61148;-80
2023/08/17 00:47:04;;;;;;;15.30;10.90;;;;;;;;;;107028;1249;61059;-80
2023/08/17 00:49:31;;;;;;;15.40;11.90;;;;;;;;;;107010;1250;61317;-80
2023/08/17 00:51:57;;;;;;;12.90;10.50;;;;;;;;;;107128;1250;61228;-80
2023/08/17 00:54:24;;;;;;;14.60;9.60;;;;;;;;;;107206;1250;61226;-80
2023/08/17 00:56:51;;;;;;;13.30;10.70;;;;;;;;;;107635;1255;63086;-81
2023/08/17 00:59:17;;;;;;;12.00;9.40;;;;;;;;;;106973;1250;61612;-80
2023/08/17 01:01:43;;;;;;;13.80;11.00;;;;;;;;;;107066;1255;61349;-80
2023/08/17 01:04:10;;;;;;;11.60;9.50;;;;;;;;;;107060;1252;61235;-81
2023/08/17 01:06:36;;;;;;;12.80;9.60;;;;;;;;;;107059;1253;62400;-80
2023/08/17 01:09:03;;;;;;;13.90;10.50;;;;;;;;;;106959;1253;61311;-80
2023/08/17 01:11:37;;;;;;;13.10;9.40;;;;;;;;;;107061;1254;59451;-80
2023/08/17 01:14:16;;;;;;;10.80;8.80;;;;;;;;;;107104;1250;61206;-80
2023/08/17 01:16:46;;;;;;;12.10;9.20;;;;;;;;;;106990;1251;61302;-80
2023/08/17 01:19:12;;;;;;;13.90;9.90;;;;;;;;;;106935;1250;61320;-80
2023/08/17 01:21:41;;;;;;;9.80;8.80;;;;;;;;;;107043;1251;61290;-80
2023/08/17 01:24:08;;;;;;;12.90;8.70;;;;;;;;;;107032;1255;62850;-80
2023/08/17 01:26:34;;;;;;;10.50;9.00;;;;;;;;;;107083;1253;61354;-80
2023/08/17 01:29:01;;;;;;;13.10;9.50;;;;;;;;;;107050;1252;61145;-80
2023/08/17 01:31:31;;;;;;;13.90;9.90;;;;;;;;;;106996;1253;61139;-80
2023/08/17 01:34:04;;;;;;;14.10;9.60;;;;;;;;;;107183;1252;61250;-80
2023/08/17 01:36:35;;;;;;;13.20;9.00;;;;;;;;;;107144;1251;63248;-80
2023/08/17 01:39:02;;;;;;;12.80;9.80;;;;;;;;;;107178;1251;60551;-80
2023/08/17 01:41:28;;;;;;;12.60;9.90;;;;;;;;;;107005;1256;61218;-80
2023/08/17 01:43:55;;;;;;;14.90;9.90;;;;;;;;;;107070;1254;61269;-80
2023/08/17 01:46:21;;;;;;;12.20;9.40;;;;;;;;;;107111;1256;61340;-80
2023/08/17 01:48:48;;;;;;;12.20;9.60;;;;;;;;;;107023;1251;61297;-80
2023/08/17 01:51:21;;;;;;;10.10;9.00;;;;;;;;;;107138;1250;61233;-80
2023/08/17 01:53:47;;;;;;;12.30;9.30;;;;;;;;;;107159;1250;61295;-80
2023/08/17 01:56:14;;;;;;;13.40;10.30;;;;;;;;;;107172;1256;61356;-80
2023/08/17 01:58:40;;;;;;;11.40;9.30;;;;;;;;;;107115;1255;61287;-80
2023/08/17 02:01:06;;;;;;;12.90;10.60;;;;;;;;;;107117;1255;61334;-80
2023/08/17 02:03:33;;;;;;;9.80;8.60;;;;;;;;;;107125;1253;61375;-80
2023/08/17 02:05:59;;;;;;;13.30;8.40;;;;;;;;;;107073;1254;61333;-80
2023/08/17 02:08:26;;;;;;;12.40;9.10;;;;;;;;;;107067;1251;61334;-80
2023/08/17 02:10:52;;;;;;;16.00;10.10;;;;;;;;;;107116;1254;61279;-80
2023/08/17 02:13:19;;;;;;;12.50;9.50;;;;;;;;;;107172;1255;61254;-80
2023/08/17 02:15:46;;;;;;;10.90;9.70;;;;;;;;;;106979;1253;61328;-80
2023/08/17 02:18:13;;;;;;;10.90;9.00;;;;;;;;;;107022;1251;61228;-80
2023/08/17 02:20:39;;;;;;;13.20;8.70;;;;;;;;;;107023;1251;61212;-80
2023/08/17 02:23:05;;;;;;;10.90;9.20;;;;;;;;;;107020;1255;61292;-80
2023/08/17 02:25:35;;;;;;;13.30;10.20;;;;;;;;;;107181;1253;61247;-80
2023/08/17 02:28:02;;;;;;;36.60;23.00;;;;;;;;;;106912;1251;61150;-80
2023/08/17 02:30:28;;;;;;;29.60;15.40;;;;;;;;;;107016;1253;61344;-80
2023/08/17 02:32:55;;;;;;;22.40;13.50;;;;;;;;;;107068;1253;61222;-80
2023/08/17 02:35:21;;;;;;;21.90;17.10;;;;;;;;;;107095;1254;62294;-80
2023/08/17 02:37:48;;;;;;;13.80;11.60;;;;;;;;;;106929;1250;61258;-80
2023/08/17 02:40:14;;;;;;;23.90;14.70;;;;;;;;;;107017;1251;62223;-80
2023/08/17 02:42:41;;;;;;;27.60;18.50;;;;;;;;;;106961;1254;61349;-80
2023/08/17 02:45:08;;;;;;;31.90;20.80;;;;;;;;;;107093;1250;61306;-80
2023/08/17 02:47:34;;;;;;;23.20;16.90;;;;;;;;;;107014;1250;61275;-80
2023/08/17 02:50:00;;;;;;;20.70;13.70;;;;;;;;;;107075;1254;61086;-80
2023/08/17 02:52:27;;;;;;;23.20;13.60;;;;;;;;;;107051;1253;61212;-80
2023/08/17 02:54:53;;;;;;;21.20;14.60;;;;;;;;;;107103;1254;61303;-80
2023/08/17 02:57:20;;;;;;;18.00;13.10;;;;;;;;;;106955;1250;61253;-80
2023/08/17 02:59:46;;;;;;;15.10;11.70;;;;;;;;;;107124;1250;61396;-80
2023/08/17 03:02:13;;;;;;;19.00;9.40;;;;;;;;;;107020;1256;59626;-80
2023/08/17 03:04:39;;;;;;;12.60;10.10;;;;;;;;;;107027;1254;61254;-80
2023/08/17 03:07:05;;;;;;;11.80;9.30;;;;;;;;;;107050;1251;61126;-80
2023/08/17 03:09:32;;;;;;;12.50;9.80;;;;;;;;;;106940;1254;61352;-80
2023/08/17 03:11:58;;;;;;;14.30;10.20;;;;;;;;;;106982;1251;61862;-80
2023/08/17 03:14:25;;;;;;;11.80;9.40;;;;;;;;;;107054;1253;61228;-80
2023/08/17 03:16:51;;;;;;;12.80;9.20;;;;;;;;;;106989;1253;61106;-80
2023/08/17 03:19:18;;;;;;;14.50;9.90;;;;;;;;;;107002;1254;61423;-80
2023/08/17 03:21:44;;;;;;;12.20;10.40;;;;;;;;;;106977;1253;62395;-80
2023/08/17 03:24:11;;;;;;;11.00;9.50;;;;;;;;;;107129;1251;61202;-80
2023/08/17 03:26:37;;;;;;;16.50;10.80;;;;;;;;;;106995;1253;61353;-81
2023/08/17 03:29:04;;;;;;;12.90;9.30;;;;;;;;;;107123;1251;60044;-80
2023/08/17 03:31:30;;;;;;;12.70;9.40;;;;;;;;;;107172;1255;61301;-80
2023/08/17 03:33:57;;;;;;;13.90;11.10;;;;;;;;;;107138;1255;61835;-80
2023/08/17 03:36:24;;;;;;;12.50;9.80;;;;;;;;;;107212;1255;61295;-81
2023/08/17 03:38:50;;;;;;;14.70;10.00;;;;;;;;;;106988;1254;61311;-81
2023/08/17 03:41:17;;;;;;;16.20;9.70;;;;;;;;;;107009;1253;61180;-80
2023/08/17 03:43:43;;;;;;;16.60;9.60;;;;;;;;;;107065;1250;61240;-80
2023/08/17 03:46:09;;;;;;;19.90;9.70;;;;;;;;;;107160;1251;61261;-81
2023/08/17 03:48:36;;;;;;;14.50;9.10;;;;;;;;;;107053;1250;61350;-80
2023/08/17 03:51:02;;;;;;;16.50;10.60;;;;;;;;;;107030;1251;61212;-80
2023/08/17 03:53:29;;;;;;;12.00;9.80;;;;;;;;;;107060;1250;61311;-80
2023/08/17 03:55:56;;;;;;;15.70;10.90;;;;;;;;;;107137;1250;61331;-80
2023/08/17 03:58:22;;;;;;;10.70;9.30;;;;;;;;;;107028;1250;61433;-80
2023/08/17 04:00:51;;;;;;;12.80;10.70;;;;;;;;;;107010;1255;61155;-79
2023/08/17 04:03:18;;;;;;;16.80;9.80;;;;;;;;;;107057;1256;62002;-80
2023/08/17 04:05:45;;;;;;;13.50;10.40;;;;;;;;;;107108;1253;59426;-79
2023/08/17 04:08:11;;;;;;;11.80;10.20;;;;;;;;;;106963;1253;61253;-80
2023/08/17 04:10:38;;;;;;;17.20;11.30;;;;;;;;;;107063;1251;61386;-80
2023/08/17 04:13:05;;;;;;;12.00;10.70;;;;;;;;;;107104;1251;61225;-80
2023/08/17 04:15:31;;;;;;;15.40;10.30;;;;;;;;;;107149;1254;61218;-80
2023/08/17 04:17:58;;;;;;;12.10;9.40;;;;;;;;;;107052;1254;61690;-80
2023/08/17 04:20:25;;;;;;;11.70;10.50;;;;;;;;;;107095;1254;61215;-80
2023/08/17 04:22:52;;;;;;;12.60;9.40;;;;;;;;;;107059;1251;61456;-80
2023/08/17 04:25:18;;;;;;;11.30;9.70;;;;;;;;;;107113;1256;61238;-80
2023/08/17 04:27:45;;;;;;;13.10;10.40;;;;;;;;;;106936;1255;61233;-80
2023/08/17 04:30:12;;;;;;;16.30;10.90;;;;;;;;;;106967;1254;62280;-80
2023/08/17 04:32:38;;;;;;;13.00;9.60;;;;;;;;;;107061;1254;61132;-80
2023/08/17 04:35:05;;;;;;;14.30;10.40;;;;;;;;;;107111;1255;60342;-80
2023/08/17 04:37:31;;;;;;;12.50;11.20;;;;;;;;;;106977;1251;60761;-80
2023/08/17 04:39:58;;;;;;;21.60;11.00;;;;;;;;;;106985;1254;61213;-80
2023/08/17 04:42:24;;;;;;;13.30;9.90;;;;;;;;;;107056;1253;61242;-80
2023/08/17 04:44:51;;;;;;;15.00;10.20;;;;;;;;;;107090;1251;61318;-80
2023/08/17 04:47:17;;;;;;;16.70;10.60;;;;;;;;;;107048;1251;61358;-80
2023/08/17 04:49:44;;;;;;;11.70;9.70;;;;;;;;;;106998;1257;61103;-80
2023/08/17 04:52:10;;;;;;;13.30;9.60;;;;;;;;;;107054;1251;59844;-80
2023/08/17 04:54:36;;;;;;;15.20;10.00;;;;;;;;;;107130;1256;61185;-80
2023/08/17 04:57:05;;;;;;;11.80;10.50;;;;;;;;;;107053;1250;61358;-80
2023/08/17 04:59:31;;;;;;;;;;;;;;;;;;107017;1251;61127;-80
2023/08/17 05:01:58;;;;;;;15.90;10.20;;;;;;;;;;107099;1255;61254;-80
2023/08/17 05:04:25;;;;;;;17.60;11.60;;;;;;;;;;107139;1251;61888;-80
2023/08/17 05:06:51;;;;;;;17.00;11.30;;;;;;;;;;107427;1256;59878;-80
2023/08/17 05:09:17;;;;;;;18.60;11.60;;;;;;;;;;107061;1253;61152;-80
2023/08/17 05:11:45;;;;;;;17.10;9.40;;;;;;;;;;107221;1254;61436;-80
2023/08/17 05:14:11;;;;;;;11.20;9.50;;;;;;;;;;107153;1254;60813;-80
2023/08/17 05:16:38;;;;;;;12.30;9.40;;;;;;;;;;107074;1254;61243;-80
2023/08/17 05:19:04;;;;;;;12.40;10.10;;;;;;;;;;107001;1250;61349;-80
2023/08/17 05:21:31;;;;;;;11.90;9.50;;;;;;;;;;106938;1256;61372;-80
2023/08/17 05:23:57;;;;;;;13.40;9.00;;;;;;;;;;107116;1251;61228;-80
2023/08/17 05:26:23;;;;;;;11.60;10.30;;;;;;;;;;107080;1255;61318;-80
2023/08/17 05:28:50;;;;;;;12.50;8.70;;;;;;;;;;107172;1253;61301;-80
2023/08/17 05:31:16;;;;;;;13.00;9.80;;;;;;;;;;107422;1252;59287;-80
2023/08/17 05:33:43;;;;;;;11.40;9.90;;;;;;;;;;107447;1254;62277;-80
2023/08/17 05:36:09;;;;;;;10.80;9.40;;;;;;;;;;107473;1253;62064;-80
2023/08/17 05:38:36;;;;;;;12.40;8.70;;;;;;;;;;107409;1253;61307;-80
2023/08/17 05:41:02;;;;;;;11.70;9.70;;;;;;;;;;107441;1253;61138;-80
2023/08/17 05:43:28;;;;;;;22.40;10.00;;;;;;;;;;107346;1255;62095;-80
2023/08/17 05:45:56;;;;;;;12.30;9.80;;;;;;;;;;107330;1251;61161;-80
2023/08/17 05:48:23;;;;;;;12.90;9.70;;;;;;;;;;106955;1251;61285;-80
2023/08/17 05:50:49;;;;;;;10.10;8.40;;;;;;;;;;107024;1251;61116;-80
2023/08/17 05:53:16;;;;;;;14.20;9.30;;;;;;;;;;107120;1250;61930;-79
2023/08/17 05:55:42;;;;;;;11.50;8.40;;;;;;;;;;107104;1253;61347;-80
2023/08/17 05:58:09;;;;;;;13.20;8.70;;;;;;;;;;107161;1251;61216;-81
2023/08/17 06:00:35;;;;;;;16.20;9.20;;;;;;;;;;107197;1252;61165;-80
2023/08/17 06:03:02;;;;;;;15.60;9.60;;;;;;;;;;107305;1253;61326;-80
2023/08/17 06:05:28;;;;;;;14.30;9.50;;;;;;;;;;107363;1251;61248;-81
2023/08/17 06:07:55;;;;;;;14.40;9.60;;;;;;;;;;107082;1254;61222;-81
2023/08/17 06:10:25;;;;;;;15.30;9.90;;;;;;;;;;107109;1254;61374;-81
2023/08/17 06:12:54;;;;;;;16.30;10.10;;;;;;;;;;107254;1251;61372;-81
2023/08/17 06:15:21;;;;;;;15.00;9.10;;;;;;;;;;107260;1255;62375;-81
2023/08/17 06:17:49;;;;;;;13.90;8.10;;;;;;;;;;107033;1251;61929;-81
2023/08/17 06:20:16;;;;;;;;;;;;;;;;;;107140;1256;61286;-81
2023/08/17 06:22:42;;;;;;;21.40;10.10;;;;;;;;;;107072;1251;61257;-80
2023/08/17 06:25:09;;;;;;;14.40;11.30;;;;;;;;;;107367;1251;61136;-82
2023/08/17 06:27:35;;;;;;;14.20;9.80;;;;;;;;;;107151;1251;61327;-81
2023/08/17 06:30:02;;;;;;;17.20;9.90;;;;;;;;;;107015;1254;61231;-81
2023/08/17 06:32:29;;;;;;;12.70;10.20;;;;;;;;;;107141;1251;61240;-81
2023/08/17 06:34:57;;;;;;;16.40;10.40;;;;;;;;;;107361;1251;60892;-82
2023/08/17 06:37:24;;;;;;;20.50;12.50;;;;;;;;;;107152;1251;61353;-81
2023/08/17 06:39:50;;;;;;;14.20;10.50;;;;;;;;;;107125;1253;61231;-81
2023/08/17 06:42:16;;;;;;;11.20;9.30;;;;;;;;;;107187;1252;61342;-80
2023/08/17 06:44:43;;;;;;;10.60;8.40;;;;;;;;;;107353;1249;59460;-81
2023/08/17 06:47:09;;;;;;;10.60;7.80;;;;;;;;;;107565;1254;61626;-81
2023/08/17 06:49:36;;;;;;;18.40;9.10;;;;;;;;;;107479;1251;61310;-81
2023/08/17 06:52:02;;;;;;;12.00;7.20;;;;;;;;;;107337;1254;61184;-81
2023/08/17 06:54:30;;;;;;;11.40;7.50;;;;;;;;;;107592;1250;61343;-82
2023/08/17 06:56:56;;;;;;;11.30;8.20;;;;;;;;;;107598;1256;61248;-81
2023/08/17 06:59:23;;;;;;;13.40;7.90;;;;;;;;;;107297;1254;61342;-81
2023/08/17 07:01:49;;;;;;;9.80;8.00;;;;;;;;;;107223;1253;61334;-81
2023/08/17 07:04:16;;;;;;;11.20;7.20;;;;;;;;;;107125;1251;61196;-81
2023/08/17 07:06:43;;;;;;;9.20;7.70;;;;;;;;;;107214;1250;61218;-81
2023/08/17 07:09:12;;;;;;;10.50;7.10;;;;;;;;;;107149;1251;61229;-81
2023/08/17 07:11:38;;;;;;;11.50;7.30;;;;;;;;;;107094;1250;204008;-81
2023/08/17 07:14:08;;;;;;;11.10;7.70;;;;;;;;;;107223;1254;59263;-81
2023/08/17 07:16:34;;;;;;;8.00;6.50;;;;;;;;;;107221;1251;61185;-81
2023/08/17 07:19:01;;;;;;;10.20;7.10;;;;;;;;;;107229;1254;61204;-81
2023/08/17 07:21:27;;;;;;;15.20;6.70;;;;;;;;;;108963;1249;61217;-81
2023/08/17 07:23:54;;;;;;;11.20;6.30;;;;;;;;;;108088;1251;61341;-81
2023/08/17 07:26:20;;;;;;;10.80;6.30;;;;;;;;;;107167;1254;59981;-81
2023/08/17 07:28:47;;;;;;;7.10;5.20;;;;;;;;;;107263;1253;59160;-81
2023/08/17 07:31:13;;;;;;;6.40;5.40;;;;;;;;;;109645;1251;58896;-81
2023/08/17 07:33:39;;;;;;;6.80;5.90;;;;;;;;;;109640;1250;59058;-81
2023/08/17 07:36:06;;;;;;;8.00;5.90;;;;;;;;;;109639;1250;58877;-81
2023/08/17 07:38:32;;;;;;;7.20;6.50;;;;;;;;;;107874;1253;61320;-81
2023/08/17 07:40:59;;;;;;;13.80;6.60;;;;;;;;;;107121;1253;61244;-81
2023/08/17 07:43:25;;;;;;;9.10;6.00;;;;;;;;;;107185;1251;61339;-81
2023/08/17 07:45:55;;;;;;;8.80;5.70;;;;;;;;;;107206;1253;61131;-81
2023/08/17 07:48:22;;;;;;;9.20;6.40;;;;;;;;;;107177;1254;61230;-81
2023/08/17 07:50:51;;;;;;;10.40;6.30;;;;;;;;;;107231;1251;61938;-81
2023/08/17 07:53:18;;;;;;;7.10;5.30;;;;;;;;;;107285;1253;61344;-81
2023/08/17 07:55:45;;;;;;;9.50;6.20;;;;;;;;;;107476;1254;62606;-82
2023/08/17 07:58:11;;;;;;;8.10;5.40;;;;;;;;;;107296;1251;59868;-81
2023/08/17 08:00:38;;;;;;;8.40;5.30;;;;;;;;;;107416;1251;61279;-81
2023/08/17 08:03:04;;;;;;;7.00;5.30;;;;;;;;;;107331;1251;61208;-81
2023/08/17 08:05:31;;;;;;;8.10;7.30;;;;;;;;;;107324;1253;61305;-81
2023/08/17 08:07:58;;;;;;;9.30;5.60;;;;;;;;;;107330;1251;61245;-82
2023/08/17 08:10:24;;;;;;;7.20;5.80;;;;;;;;;;107209;1251;61080;-81
2023/08/17 08:12:50;;;;;;;8.90;5.80;;;;;;;;;;107169;1252;61109;-81
2023/08/17 08:15:17;;;;;;;7.00;6.10;;;;;;;;;;107279;1250;61295;-81
2023/08/17 08:17:44;;;;;;;8.20;6.00;;;;;;;;;;107109;1254;61206;-81
2023/08/17 08:20:11;;;;;;;6.10;5.40;;;;;;;;;;107189;1253;62862;-81
2023/08/17 08:22:37;;;;;;;7.90;5.30;;;;;;;;;;107198;1251;61132;-82
2023/08/17 08:25:03;;;;;;;6.90;5.70;;;;;;;;;;107191;1250;61212;-81
2023/08/17 08:27:30;;;;;;;9.80;4.70;;;;;;;;;;107247;1251;61187;-81
2023/08/17 08:29:57;;;;;;;7.60;5.20;;;;;;;;;;107240;1251;61237;-81
2023/08/17 08:32:23;;;;;;;5.50;5.00;;;;;;;;;;107239;1251;61588;-81
2023/08/17 08:34:50;;;;;;;7.40;5.60;;;;;;;;;;107287;1250;61276;-82
2023/08/17 08:37:16;;;;;;;5.40;4.70;;;;;;;;;;107135;1254;61240;-82
2023/08/17 08:39:52;;;;;;;5.10;4.20;;;;;;;;;;107105;1253;61313;-81
2023/08/17 08:42:19;;;;;;;7.10;4.60;;;;;;;;;;107146;1251;61245;-82
2023/08/17 08:44:46;;;;;;;6.00;4.70;;;;;;;;;;109709;1251;62582;-82
2023/08/17 08:47:13;;;;;;;5.50;4.70;;;;;;;;;;108078;1251;61220;-82
2023/08/17 08:49:39;;;;;;;6.90;5.20;;;;;;;;;;107168;1251;61230;-82
2023/08/17 08:52:08;;;;;;;7.70;4.50;;;;;;;;;;107212;1251;61164;-82
2023/08/17 08:54:35;;;;;;;5.20;4.70;;;;;;;;;;107187;1251;61333;-82
2023/08/17 08:57:03;;;;;;;5.40;4.30;;;;;;;;;;108093;1250;61110;-82
2023/08/17 08:59:29;;;;;;;4.80;4.30;;;;;;;;;;107191;1251;61142;-82
2023/08/17 09:01:57;;;;;;;7.10;4.80;;;;;;;;;;107268;1251;61228;-82
2023/08/17 09:04:23;;;;;;;4.90;4.50;;;;;;;;;;107298;1251;61158;-82
2023/08/17 09:06:50;;;;;;;6.00;4.50;;;;;;;;;;107326;1253;61227;-82
2023/08/17 09:09:18;;;;;;;4.90;4.40;;;;;;;;;;107133;1251;62648;-82
2023/08/17 09:11:44;;;;;;;6.00;4.70;;;;;;;;;;107107;1251;61271;-82
2023/08/17 09:14:11;;;;;;;6.20;4.50;;;;;;;;;;107203;1251;61203;-82
2023/08/17 09:16:37;;;;;;;4.90;4.20;;;;;;;;;;107189;1251;61333;-82
2023/08/17 09:19:03;;;;;;;7.00;4.90;;;;;;;;;;107285;1253;61246;-82
2023/08/17 09:21:31;;;;;;;9.60;4.90;;;;;;;;;;107181;1253;61260;-82
2023/08/17 09:23:57;;;;;;;;;;;;;;;;;;107263;1251;61254;-81
2023/08/17 09:26:24;;;;;;;7.60;4.90;;;;;;;;;;107128;1251;61362;-82
2023/08/17 09:28:51;;;;;;;7.70;6.00;;;;;;;;;;107231;1251;61334;-82
2023/08/17 09:31:20;;;;;;;5.10;4.30;;;;;;;;;;107809;1251;59122;-82
2023/08/17 09:33:48;;;;;;;6.30;5.10;;;;;;;;;;107297;1249;61930;-82
2023/08/17 09:36:15;;;;;;;4.70;4.10;;;;;;;;;;107301;1251;61399;-82
2023/08/17 09:38:41;;;;;;;5.90;4.60;;;;;;;;;;107093;1251;62243;-82
2023/08/17 09:41:07;;;;;;;7.50;4.00;;;;;;;;;;107268;1251;61212;-81
2023/08/17 09:43:34;;;;;;;7.60;4.00;;;;;;;;;;107213;1250;61275;-81
2023/08/17 09:46:02;;;;;;;6.40;4.90;;;;;;;;;;107244;1251;61237;-81
2023/08/17 09:48:28;;;;;;;6.50;4.50;;;;;;;;;;106997;1251;61288;-81
2023/08/17 09:50:56;;;;;;;5.30;4.70;;;;;;;;;;107021;1251;61249;-81
2023/08/17 09:53:22;;;;;;;8.70;4.30;;;;;;;;;;107115;1251;61359;-81
2023/08/17 09:55:49;;;;;;;7.70;4.60;;;;;;;;;;107175;1251;62252;-81
2023/08/17 09:58:16;;;;;;;4.60;4.10;;;;;;;;;;107186;1250;61170;-82
2023/08/17 10:00:43;;;;;;;4.50;4.10;;;;;;;;;;107045;1249;61283;-82
2023/08/17 10:03:09;;;;;;;11.40;4.70;;;;;;;;;;107154;1253;61127;-82
2023/08/17 10:05:38;;;;;;;18.70;3.70;;;;;;;;;;107176;1254;59149;-83
2023/08/17 10:08:05;;;;;;;17.80;5.50;;;;;;;;;;107099;1251;61256;-82
2023/08/17 10:10:34;;;;;;;12.80;5.40;;;;;;;;;;107010;1251;61343;-82
2023/08/17 10:13:06;;;;;;;15.00;4.50;;;;;;;;;;107195;1251;61097;-82
2023/08/17 10:15:33;;;;;;;10.60;4.10;;;;;;;;;;107201;1250;61247;-82
2023/08/17 10:18:02;;;;;;;10.10;3.80;;;;;;;;;;107010;1250;61190;-82
2023/08/17 10:20:29;;;;;;;11.30;4.20;;;;;;;;;;107068;1251;59819;-82
2023/08/17 10:23:22;;;;;;;11.10;4.30;;;;;;;;;;106998;1254;61924;-82
2023/08/17 10:25:49;;;;;;;11.50;4.60;;;;;;;;;;106983;1254;61280;-82
2023/08/17 10:28:15;;;;;;;7.90;5.10;;;;;;;;;;107017;1251;61246;-81
2023/08/17 10:30:41;;;;;;;7.10;3.80;;;;;;;;;;107016;1254;61342;-82
2023/08/17 10:33:09;;;;;;;6.70;3.70;;;;;;;;;;107144;1250;61336;-81
2023/08/17 10:35:36;;;;;;;9.90;3.90;;;;;;;;;;107203;1251;62949;-80
2023/08/17 10:38:03;;;;;;;8.90;4.90;;;;;;;;;;107033;1254;61087;-83
2023/08/17 10:40:34;;;;;;;9.30;4.90;;;;;;;;;;107053;1250;61090;-82
2023/08/17 10:43:01;;;;;;;11.00;4.50;;;;;;;;;;107080;1252;61118;-83
2023/08/17 10:45:28;;;;;;;10.70;5.10;;;;;;;;;;107131;1250;61199;-81
2023/08/17 10:48:07;;;;;;;11.00;5.10;;;;;;;;;;107086;1251;61218;-81
2023/08/17 10:50:37;;;;;;;8.40;5.10;;;;;;;;;;107441;1251;61238;-81
2023/08/17 10:53:13;;;;;;;14.10;7.60;;;;;;;;;;107156;1254;61384;-81
2023/08/17 10:55:40;;;;;;;17.90;9.50;;;;;;;;;;106932;1251;61090;-82
2023/08/17 10:58:09;;;;;;;16.40;9.40;;;;;;;;;;107020;1254;61218;-83
2023/08/17 11:00:36;;;;;;;16.90;10.20;;;;;;;;;;106870;1250;61912;-81
2023/08/17 11:03:09;;;;;;;11.80;8.80;;;;;;;;;;106901;1254;61154;-82
2023/08/17 11:05:48;;;;;;;13.20;6.60;;;;;;;;;;107421;1249;61237;-83
2023/08/17 11:08:20;;;;;;;14.20;9.20;;;;;;;;;;107320;1250;61286;-83
2023/08/17 11:10:48;;;;;;;18.90;9.90;;;;;;;;;;108487;1250;59184;-81
2023/08/17 11:13:14;;;;;;;12.80;8.20;;;;;;;;;;109594;1249;61746;-81
2023/08/17 11:15:44;;;;;;;14.30;6.80;;;;;;;;;;109620;1249;59242;-83
2023/08/17 11:18:11;;;;;;;12.10;8.20;;;;;;;;;;109595;1250;60410;-83
2023/08/17 11:20:41;;;;;;;11.70;6.90;;;;;;;;;;108565;1251;61344;-80
2023/08/17 11:23:08;;;;;;;14.00;6.70;;;;;;;;;;107263;1250;61795;-80
2023/08/17 11:25:34;;;;;;;14.40;6.70;;;;;;;;;;107515;1250;61996;-80
2023/08/17 11:28:01;;;;;;;15.60;6.70;;;;;;;;;;107179;1250;61145;-80
2023/08/17 11:30:28;;;;;;;12.70;8.10;;;;;;;;;;107215;1249;61381;-82
2023/08/17 11:32:54;;;;;;;16.80;7.60;;;;;;;;;;107140;1251;61264;-82
2023/08/17 11:35:21;;;;;;;14.70;7.40;;;;;;;;;;107266;1254;61157;-80
2023/08/17 11:37:48;;;;;;;15.70;6.90;;;;;;;;;;107017;1251;61962;-81
2023/08/17 11:40:15;;;;;;;12.20;6.60;;;;;;;;;;107237;1250;61011;-80
2023/08/17 11:42:41;;;;;;;9.40;7.00;;;;;;;;;;107239;1253;61127;-79
2023/08/17 11:45:11;;;;;;;12.70;7.00;;;;;;;;;;107219;1250;61331;-81
2023/08/17 11:47:41;;;;;;;13.40;6.90;;;;;;;;;;107122;1250;61135;-79
2023/08/17 11:50:11;;;;;;;15.80;7.50;;;;;;;;;;107149;1251;62892;-83
2023/08/17 11:52:37;;;;;;;10.40;6.50;;;;;;;;;;107306;1253;61232;-80
2023/08/17 11:55:05;;;;;;;10.90;6.40;;;;;;;;;;107220;1250;61339;-79
2023/08/17 11:57:32;;;;;;;9.20;6.80;;;;;;;;;;107156;1250;61116;-82
2023/08/17 11:59:59;;;;;;;12.10;6.40;;;;;;;;;;107086;1250;61126;-79
2023/08/17 12:02:26;;;;;;;12.40;7.30;;;;;;;;;;107183;1253;62738;-79
2023/08/17 12:04:53;;;;;;;13.50;9.30;;;;;;;;;;107208;1250;61115;-81
2023/08/17 12:07:21;;;;;;;14.90;7.50;;;;;;;;;;107322;1250;61215;-82
2023/08/17 12:09:47;;;;;;;10.80;8.00;;;;;;;;;;107193;1253;61378;-79
2023/08/17 12:12:17;;;;;;;9.90;6.60;;;;;;;;;;107307;1249;61301;-79
2023/08/17 12:14:44;;;;;;;11.50;6.70;;;;;;;;;;107821;1253;60415;-81
2023/08/17 12:17:16;;;;;;;10.90;6.30;;;;;;;;;;107296;1250;61116;-78
2023/08/17 12:19:43;;;;;;;8.80;5.90;;;;;;;;;;107196;1250;61212;-81
2023/08/17 12:22:10;;;;;;;10.00;5.80;;;;;;;;;;107259;1251;62300;-79
2023/08/17 12:24:37;;;;;;;9.10;5.10;;;;;;;;;;107221;1250;61314;-81
2023/08/17 12:27:04;;;;;;;10.10;6.00;;;;;;;;;;107109;1256;61937;-80
2023/08/17 12:29:30;;;;;;;8.70;5.00;;;;;;;;;;107206;1250;61151;-81
2023/08/17 12:31:57;;;;;;;6.40;4.40;;;;;;;;;;107139;1251;61280;-80
2023/08/17 12:34:24;;;;;;;6.80;4.80;;;;;;;;;;107204;1249;62372;-81
2023/08/17 12:36:50;;;;;;;9.30;6.90;;;;;;;;;;107272;1250;61405;-81
2023/08/17 12:39:16;;;;;;;11.40;7.60;;;;;;;;;;107177;1250;61354;-80
2023/08/17 12:41:43;;;;;;;7.20;6.00;;;;;;;;;;107189;1254;61369;-81
2023/08/17 12:44:13;;;;;;;8.20;5.80;;;;;;;;;;107149;1250;59516;-81
2023/08/17 12:46:40;;;;;;;7.80;5.90;;;;;;;;;;107194;1249;61345;-81
2023/08/17 12:49:07;;;;;;;15.10;6.00;;;;;;;;;;107443;1254;60263;-81
2023/08/17 12:51:33;;;;;;;8.40;6.70;;;;;;;;;;107252;1250;61580;-80
2023/08/17 12:54:00;;;;;;;8.70;6.00;;;;;;;;;;107122;1251;61145;-81
2023/08/17 12:56:26;;;;;;;7.60;5.30;;;;;;;;;;107273;1248;61281;-81
2023/08/17 12:58:52;;;;;;;7.10;5.30;;;;;;;;;;107137;1253;61266;-80
2023/08/17 13:01:19;;;;;;;6.40;4.90;;;;;;;;;;107032;1254;60192;-81
2023/08/17 13:03:45;;;;;;;8.70;5.00;;;;;;;;;;107161;1250;59288;-80
2023/08/17 13:06:11;;;;;;;5.80;4.40;;;;;;;;;;107241;1249;62045;-80
2023/08/17 13:08:38;;;;;;;11.60;4.50;;;;;;;;;;107096;1254;61253;-78
2023/08/17 13:11:04;;;;;;;7.40;4.30;;;;;;;;;;106515;1250;61215;-80
2023/08/17 13:13:31;;;;;;;4.60;3.70;;;;;;;;;;107285;1250;61130;-80
2023/08/17 13:15:57;;;;;;;5.90;4.50;;;;;;;;;;107238;1251;61332;-80
2023/08/17 13:18:24;;;;;;;4.90;4.00;;;;;;;;;;107089;1250;61282;-80
2023/08/17 13:20:51;;;;;;;7.50;4.70;;;;;;;;;;107284;1250;61247;-81
2023/08/17 13:23:17;;;;;;;5.70;5.10;;;;;;;;;;107398;1250;61338;-80
2023/08/17 13:25:44;;;;;;;7.50;4.90;;;;;;;;;;107146;1250;61349;-80
2023/08/17 13:28:10;;;;;;;5.90;4.40;;;;;;;;;;107152;1250;59393;-80
2023/08/17 13:30:38;;;;;;;9.70;5.30;;;;;;;;;;107139;1253;61981;-81
2023/08/17 13:33:06;;;;;;;5.50;4.30;;;;;;;;;;107217;1249;61285;-80
2023/08/17 13:35:33;;;;;;;6.10;5.00;;;;;;;;;;107187;1250;61384;-80
2023/08/17 13:37:59;;;;;;;6.40;5.30;;;;;;;;;;107075;1251;59191;-80
2023/08/17 13:40:25;;;;;;;6.20;4.80;;;;;;;;;;107130;1253;61164;-80
2023/08/17 13:42:52;;;;;;;7.00;4.80;;;;;;;;;;107186;1250;61183;-80
2023/08/17 13:45:18;;;;;;;8.40;5.20;;;;;;;;;;107220;1253;61323;-81
2023/08/17 13:47:45;;;;;;;10.10;6.30;;;;;;;;;;107138;1251;61116;-80
2023/08/17 13:50:11;;;;;;;6.20;4.80;;;;;;;;;;107148;1250;61440;-81
2023/08/17 13:52:38;;;;;;;7.40;5.30;;;;;;;;;;107094;1250;61249;-80
2023/08/17 13:55:05;;;;;;;11.00;5.90;;;;;;;;;;107198;1250;61267;-80
2023/08/17 13:57:31;;;;;;;9.20;6.50;;;;;;;;;;107151;1253;61148;-80
2023/08/17 13:59:58;;;;;;;5.60;4.90;;;;;;;;;;107158;1249;61893;-80
2023/08/17 14:02:24;;;;;;;9.30;5.60;;;;;;;;;;107294;1250;61213;-80
2023/08/17 14:04:50;;;;;;;8.80;4.60;;;;;;;;;;107261;1251;59512;-80
2023/08/17 14:07:17;;;;;;;8.00;4.60;;;;;;;;;;107583;1250;61354;-80
2023/08/17 14:09:43;;;;;;;9.00;5.40;;;;;;;;;;106968;1253;61298;-80
2023/08/17 14:12:10;;;;;;;4.80;4.20;;;;;;;;;;106983;1250;61235;-80
2023/08/17 14:14:37;;;;;;;8.20;4.20;;;;;;;;;;106990;1250;61337;-80
2023/08/17 14:17:03;;;;;;;7.20;3.40;;;;;;;;;;107036;1250;61258;-80